Airfield :
LOGIN :

Register | Disclaimer

   EN    FR    IT 

 










Legend :    VFR   Marginal VFR   IFR   Intensive IFR   Very Intensive IFR
Visi :
Ceiling :
>= 8 km
>= 3000ft
5 to 8 km
1000 to 3000 ft
1500m to 5 km
500 to 1000 ft
800 to 1500m
200 to 500 ft
< 800m
< 200 ft
Symbols :   Thunderstorms  Fog  Heavy snow  Heavy precipitations  Wind > 20 kt
SIGMETs :     Misc.  Thunderstorms  Icing  Turbulence  Mountain Waves  Volcanic Ashes







- Airport Elevation : 1682 ft
- IATA code : VIT


LEVT - Vitoria Gasteiz

CURRENT METAR :
  • 181530Z 13003KT 9999 FEW020 FEW050TCU 28/14 Q1016

EXPIRED METARs :
  • 181500Z 19003KT 9999 FEW020 FEW030TCU 29/14 Q1017
  • 181430Z 21002KT 9999 FEW020 FEW030TCU 29/15 Q1016
  • 181400Z 27002KT 9999 FEW025 28/15 Q1017
  • 181330Z 23003KT 9999 FEW020 28/16 Q1017
  • 181300Z VRB04KT 9999 FEW035 27/16 Q1017
  • 181230Z 19002KT 9999 FEW025 26/17 Q1018

TAF TAF LEVT
Valid from the 18 at 12:00 until the 19 at 12:00 UTC


181100Z 1812/1912 VRB04KT 9999 SCT035 TX28/1814Z TN13/1906Z
TEMPO 1814/1822 SHRA SCT030TCU
PROB40
TEMPO 1814/1822 VRB15G30KT 3000 TSRA SCT030CB
TEMPO 1815/1820 02010KT
PROB40
TEMPO 1823/1907 1500 BCFG BKN010
No reported NOTAMs for that airfield.
2 SIGMETs reported for the Madrid FIR (LECM) :
 
Embedded thunderstorms
LECM SIGMET 2 VALID 181430/181630 LEVA
LECM MADRID FIR/UIR EMBD TS FCST WI N40 W00530 - N4030 W00110 - N3710 W002 - N3640 W00530 - N40 W00530 TOP FL380 STNR NC=
Embedded thunderstorms
LECM SIGMET 1 VALID 181430/181630 LEVA
LECM MADRID FIR/UIR EMBD TS FCST WI N4010 W00610 - N43 W00210 - N4250 W00040 - N4140 W00150 - N41 W001 - N4010 W00610 TOP FL380 STNR NC=



MET'MAP, your aeronautical weather chart ! - Copyright ORBIFLY December 2007 - Disclaimer

ORBIFLY MET'MAP TEAM :

Programming & Development : Alexandra Zaïnal
Concept & Development : Baudouin d'Aumeries
Co-Development & Prog : Marc-Olivier Méhu
Technical & hardware support : Manuel Goepfert

Contact : metmap@orbifly.com




SOURCES & CREDITS :

   NOAA